Tiempo atmosférico en la estación meteorológica de Bello, Teruel (1006 m.)



Fecha
DESCASC
Temp. máxima en grados centígrados (hora)
DESCASC
Temp. mínima en grados centígrados (hora)
DESCASC
Temp. media en grados centígrados
DESCASC
Racha de viento máxima en m/sg (hora)
DESCASC
Velocidad máxima media en intervalos de 10 minutos(hora)
DESCASC
Precipitaciones diarias en mm
DESCASC
Precipitaciones de 00:00 a 06:00 en mm
DESCASC
Precipitaciones de 06:00 a 12:00 en mm
DESCASC
Precipitaciones de 12:00 a 18:00 en mm
DESCASC
Precipitaciones de 18:00 a 24:00 en mm
DESCASC
30-12-2019 -- (--) -- (--) -- -- (--) -- (--) -- 0 0 0 --
12-01-2020 9.3 (15:30) -8.8 (07:50) 0.3 4.17 (19:20) 3.61 (19:20) 0 0 0 0 0
13-01-2020 11 (15:10) -8.4 (-00:0) 1.3 7.78 (19:00) 5.28 (15:00) 0 0 0 0 0
14-01-2020 10.3 (15:40) -7.1 (-00:0) 1.6 5.83 (22:40) 3.89 (22:40) 0 0 0 0 0
28-12-2019 13.4 (16:50) -6.6 (-00:0) 3.4 4.17 (19:50) 3.61 (19:50) 0 0 0 0 0
11-01-2020 8.5 (15:30) -6.3 (-00:0) 1.1 4.44 (02:00) 3.33 (19:50) 0 0 0 0 0
02-01-2020 15.7 (16:00) -6.1 (-00:0) 4.8 4.44 (16:00) 3.33 (21:20) 0 0 0 0 0
05-01-2020 11.7 (15:30) -6.1 (-00:0) 2.8 4.72 (19:30) 3.89 (19:30) 0 0 0 0 0
01-01-2020 13 (16:10) -6.1 (-00:0) 3.5 3.33 (23:30) 2.5 (06:20) 0 0 0 0 0
07-01-2020 13.9 (15:30) -5.6 (-00:0) 4.1 4.44 (15:30) 2.78 (20:10) 0 0 0 0 0
06-01-2020 14.7 (14:40) -5.5 (-00:0) 4.6 5.28 (15:50) 3.61 (15:50) 0 0 0 0 0
29-12-2019 12.5 (16:40) -5.2 (-00:0) 3.7 3.89 (20:40) 3.33 (19:00) 0 0 0 0 0
03-01-2020 8.2 (13:40) -4.3 (-00:0) 1.9 6.67 (13:30) 3.89 (14:00) 0 0 0 0 0
09-01-2020 13.8 (15:00) -4.3 (-00:0) 4.8 5.28 (22:40) 3.33 (22:40) 0 0 0 0 0
31-12-2019 13.1 (17:10) -4.2 (-00:0) 4.5 4.17 (20:10) 3.61 (20:10) 0 0 0 0 0
27-12-2019 11.4 (16:00) -3.9 (-00:0) 3.7 5.56 (20:30) 4.17 (20:20) 0 0 0 0 0
04-01-2020 6.5 (15:10) -3.6 (-00:0) 1.5 5.28 (15:00) 3.33 (15:00) 0 0 0 0 0
20-01-2020 -2 (00:00) -3.4 (-00:0) -2.7 15.83 (12:30) 9.17 (13:30) 0 0 0 0 0
18-01-2020 10.4 (15:20) -3.3 (-00:0) 3.5 14.17 (15:20) 9.17 (15:30) 3.2 0 0 0 3.2
08-01-2020 12.4 (16:00) -3 (-00:0) 4.7 5.83 (21:10) 3.89 (21:10) 0 0 0 0 0
21-01-2020 0.2 (18:30) -2.5 (-00:0) -1.1 13.33 (01:30) 9.72 (14:00) 44.8 0 0.2 8.6 36
19-01-2020 2.4 (00:10) -2 (-00:0) 0.2 12.78 (17:20) 8.61 (17:00) 1.6 0.2 1.2 0.2 0
16-01-2020 13 (15:10) -1.3 (-00:0) 5.9 11.39 (13:50) 6.94 (14:00) 0 0 0 0 0
17-01-2020 8.5 (14:50) -1.2 (-00:0) 3.6 11.39 (11:00) 7.5 (11:00) 0 0 0 0 0
24-01-2020 5.1 (16:40) -1.2 (-00:0) 1.9 10.28 (00:30) 7.22 (00:20) 0 0 0 0 0
15-01-2020 11.3 (14:50) -0.4 (00:00) 5.5 13.61 (15:30) 8.61 (15:20) 0 0 0 0 0
22-01-2020 1.4 (15:20) 0 (00:00) 0.7 8.06 (12:10) 5.56 (12:20) 1.4 1.4 0 0 0
23-01-2020 3.1 (23:00) 0 (00:00) 1.5 8.61 (23:59) 6.94 (23:50) 0 0 0 0 0
10-01-2020 6.7 (14:10) 0.8 (00:00) 3.7 15.83 (15:30) 9.72 (16:20) 0 0 0 0 0
25-01-2020 5.3 (14:20) 1.4 (00:00) 3.4 10 (07:30) 7.22 (07:40) 3.6 0 1 0.6 2

Gráficas

Temp. máximas Temp. mínimas Temp. medias Precipitaciones Rachas de viento máximas Velocidades máximas media en intervalos de 10 minutos

Datos horarios

Fecha y hora oficial Temperatura (ºC) Velocidad del viento (km/h) Dirección del viento Racha (km/h) Dirección de racha Precipitación (mm) Presión (hPa) Tendencia (hPa) Humedad (%)
2020-01-25 23:00:00 1.9 5 Oeste 13 Oeste 0.4 -- -- 97
2020-01-25 22:00:00 2 9 Oeste 12 Oeste 0 -- -- 98
2020-01-25 21:00:00 1.9 6 Oeste 9 Oeste 0.2 -- -- 97
2020-01-25 20:00:00 3.1 4 Noroeste 9 Oeste 0 -- -- 98
2020-01-25 19:00:00 2.2 2 Sudeste 5 Oeste 0.8 -- -- 95
2020-01-25 18:00:00 3.5 2 Norte 5 Oeste 0.4 -- -- 96
2020-01-25 17:00:00 3.8 3 Sudoeste 18 Sur 0 -- -- 94
2020-01-25 16:00:00 4.4 10 Sudoeste 26 Sur 0.2 -- -- 92
2020-01-25 15:00:00 4.8 17 Sur 22 Sur 0 -- -- 88
2020-01-25 14:00:00 4.7 9 Sur 23 Sur 0 -- -- 87
2020-01-25 13:00:00 4.5 16 Sur 21 Sur 0 -- -- 89
2020-01-25 12:00:00 3.9 12 Sur 19 Sur 0 -- -- 90
2020-01-25 11:00:00 3.2 18 Sur 30 Sur 0 -- -- 93
2020-01-25 10:00:00 2.7 18 Sur 24 Sur 0.4 -- -- 96
2020-01-25 09:00:00 2.6 14 Sur 24 Sur 0.6 -- -- 96
2020-01-25 08:00:00 2.9 20 Sur 36 Sur 0 -- -- 95
2020-01-25 07:00:00 2.9 10 Sur 22 Sur 0 -- -- 95
2020-01-25 06:00:00 3.4 6 Este 20 Sudeste 0 -- -- 94
2020-01-25 05:00:00 2.6 8 Este 15 Sudeste 0 -- -- 97
2020-01-25 04:00:00 2.2 9 Sudeste 18 Sudeste 0 -- -- 97
2020-01-25 03:00:00 2.6 5 Sudeste 10 Sudeste 0 -- -- 94
2020-01-25 02:00:00 3 6 Oeste 12 Noroeste 0 -- -- 96
2020-01-25 01:00:00 1.8 3 Norte 6 Norte 0 -- -- 96
2020-01-25 00:00:00 1.4 2 Norte 6 Norte 0 -- -- 96
2020-01-24 23:00:00 1.5 3 Nordeste 7 Noroeste 0 -- -- 94
2020-01-24 22:00:00 1.7 0 Calma 10 Noroeste 0 -- -- 94
2020-01-24 21:00:00 2 5 Sudeste 9 Sudeste 0 -- -- 93
2020-01-24 20:00:00 2.5 3 Norte 12 Noroeste 0 -- -- 93
2020-01-24 19:00:00 2.8 5 Norte 17 Sur 0 -- -- 88
2020-01-24 18:00:00 3.3 10 Sur 17 Sur 0 -- -- 89
2020-01-24 17:00:00 3.9 5 Sudeste 9 Sur 0 -- -- 83
2020-01-24 16:00:00 3.8 3 Noroeste 9 Nordeste 0 -- -- 88
2020-01-24 15:00:00 4.2 5 Sudoeste 19 Sudoeste 0 -- -- 85
2020-01-24 14:00:00 4.3 13 Sudoeste 26 Sur 0 -- -- 85
2020-01-24 13:00:00 3.4 17 Sudoeste 26 Sur 0 -- -- 90
2020-01-24 12:00:00 2.7 21 Sur 24 Sur 0 -- -- 93
2020-01-24 11:00:00 2 19 Sur 31 Sur 0 -- -- 96
2020-01-24 10:00:00 2 17 Sur 23 Sur 0 -- -- 95
2020-01-24 09:00:00 1.7 5 Sudeste 17 Sudoeste 0 -- -- 99
2020-01-24 08:00:00 -1.2 3 Nordeste 8 Nordeste 0 -- -- 98
2020-01-24 07:00:00 -0.2 4 Sudoeste 11 Noroeste 0 -- -- 99
2020-01-24 06:00:00 -0.5 5 Norte 10 Norte 0 -- -- 98
2020-01-24 05:00:00 0.4 3 Oeste 12 Sur 0 -- -- 97
2020-01-24 04:00:00 1.9 11 Sur 21 Sudeste 0 -- -- 95
2020-01-24 03:00:00 2.6 10 Sudeste 18 Sudeste 0 -- -- 96
2020-01-24 02:00:00 2 18 Sur 26 Sur 0 -- -- 96
2020-01-24 01:00:00 2.4 22 Sur 37 Sur 0 -- -- 94
2020-01-24 00:00:00 2.9 24 Sur 31 Sur 0 -- -- 92
2020-01-23 23:00:00 3.1 20 Sur 30 Sur 0 -- -- 92
2020-01-23 22:00:00 2.5 16 Sur 22 Sur 0 -- -- 95
2020-01-23 21:00:00 2.6 18 Sur 27 Sur 0 -- -- 98
2020-01-23 20:00:00 2.6 21 Sur 26 Sur 0 -- -- 100
2020-01-23 19:00:00 1.1 3 Nordeste 9 Este 0 -- -- 100
2020-01-23 18:00:00 0.3 4 Nordeste 8 Oeste 0 -- -- 100
2020-01-23 17:00:00 0.3 3 Norte 8 Norte 0 -- -- 100
2020-01-23 16:00:00 0.3 4 Norte 7 Norte 0 -- -- 100
2020-01-23 15:00:00 1.6 0 Calma 9 Noroeste 0 -- -- 100
2020-01-23 14:00:00 1.5 3 Oeste 8 Noroeste 0 -- -- 99
2020-01-23 13:00:00 1.3 4 Nordeste 15 Sur 0 -- -- 99
2020-01-23 12:00:00 1.4 2 Sudeste 7 Este 0 -- -- 100
2020-01-23 11:00:00 0.5 7 Sudoeste 13 Sudoeste 0 -- -- 100
2020-01-23 10:00:00 0.1 8 Sudeste 16 Sur 0 -- -- 100
2020-01-23 09:00:00 0.4 7 Sudeste 17 Sur 0 -- -- 100
2020-01-23 08:00:00 0.8 9 Sur 19 Sur 0 -- -- 100
2020-01-23 07:00:00 0.4 4 Sur 11 Sudoeste 0 -- -- 100
2020-01-23 06:00:00 0.5 5 Sudoeste 10 Oeste 0 -- -- 100
2020-01-23 05:00:00 0.3 5 Sur 7 Este 0 -- -- 100
2020-01-23 04:00:00 0.5 2 Sur 9 Oeste 0 -- -- 100
2020-01-23 03:00:00 0.6 3 Sudoeste 9 Oeste 0 -- -- 100
2020-01-23 02:00:00 0.6 5 Oeste 9 Oeste 0 -- -- 100
2020-01-23 01:00:00 0.6 0 Calma 4 Sudoeste 0 -- -- 100
2020-01-23 00:00:00 0.7 3 Sur 4 Sur 0 -- -- 100
2020-01-22 23:00:00 0.7 3 Sudoeste 6 Noroeste 0 -- -- 100
2020-01-22 22:00:00 0.5 4 Sudeste 6 Sur 0 -- -- 100
2020-01-22 21:00:00 0.7 0 Calma 8 Sur 0 -- -- 100
2020-01-22 20:00:00 0.7 5 Sudeste 11 Sudeste 0 -- -- 100
2020-01-22 19:00:00 0.6 6 Este 9 Oeste 0 -- -- 100
2020-01-22 18:00:00 0.9 5 Oeste 11 Sudoeste 0 -- -- 100
2020-01-22 17:00:00 1.2 4 Oeste 14 Nordeste 0 -- -- 100
2020-01-22 16:00:00 1.2 10 Este 15 Nordeste 0 -- -- 100
2020-01-22 15:00:00 1.2 7 Este 16 Este 0 -- -- 100
2020-01-22 14:00:00 1.1 10 Este 19 Este 0 -- -- 100
2020-01-22 13:00:00 1.3 3 Norte 29 Este 0 -- -- 100
2020-01-22 12:00:00 0.9 15 Este 22 Este 0 -- -- 100
2020-01-22 11:00:00 0.9 10 Este 16 Sudeste 0 -- -- 100
2020-01-22 10:00:00 1.1 9 Este 16 Este 0 -- -- 100
2020-01-22 09:00:00 0.8 10 Este 14 Este 0 -- -- 100
2020-01-22 08:00:00 0.7 15 Este 26 Este 0 -- -- 100
2020-01-22 07:00:00 0.6 18 Este 26 Este 0 -- -- 100
2020-01-22 06:00:00 0.7 15 Este 24 Nordeste 0 -- -- 100
2020-01-22 05:00:00 0.5 15 Este 24 Este 0 -- -- 100
2020-01-22 04:00:00 0.5 15 Este 25 Este 0 -- -- 100
2020-01-22 03:00:00 0.1 10 Este 24 Este 0 -- -- 100
2020-01-22 02:00:00 0.2 16 Este 28 Este 0.8 -- -- 100
2020-01-22 01:00:00 0 8 Nordeste 13 Nordeste 0.6 -- -- 100
2020-01-22 00:00:00 0.2 9 Nordeste 12 Nordeste 2.4 -- -- 100
2020-01-21 23:00:00 0 5 Nordeste 7 Nordeste 8 -- -- 100
2020-01-21 22:00:00 0 6 Nordeste 9 Este 6.6 -- -- 99
2020-01-21 21:00:00 0 6 Este 11 Este 6.2 -- -- 99
2020-01-21 20:00:00 0.1 9 Este 13 Este 6.6 -- -- 99
2020-01-21 19:00:00 0.2 10 Este 18 Este 6.2 -- -- 99
2020-01-21 18:00:00 -0.1 12 Nordeste 27 Nordeste 2.6 -- -- 99
2020-01-21 17:00:00 0 21 Nordeste 44 Nordeste 1.8 -- -- 99
2020-01-21 16:00:00 0 24 Nordeste 40 Nordeste 0.8 -- -- 99
2020-01-21 15:00:00 -0.2 22 Nordeste 39 Nordeste 0.4 -- -- 99
2020-01-21 14:00:00 -0.4 35 Nordeste 45 Nordeste 2.8 -- -- 98
2020-01-21 13:00:00 -0.8 27 Nordeste 36 Nordeste 0.2 -- -- 97
2020-01-21 12:00:00 -0.4 13 Nordeste 25 Nordeste 0.2 -- -- 96
2020-01-21 11:00:00 -0.9 17 Nordeste 33 Nordeste 0 -- -- 95
2020-01-21 10:00:00 -0.9 13 Nordeste 27 Nordeste 0 -- -- 95
2020-01-21 09:00:00 -1.2 15 Nordeste 32 Nordeste 0 -- -- 95
2020-01-21 08:00:00 -1.9 15 Nordeste 40 Nordeste 0 -- -- 96
2020-01-21 07:00:00 -2.1 27 Nordeste 40 Nordeste 0 -- -- 96
2020-01-21 06:00:00 -2.3 17 Nordeste 40 Nordeste 0 -- -- 96
2020-01-21 05:00:00 -1.8 25 Nordeste 35 Nordeste 0 -- -- 95
2020-01-21 04:00:00 -1.9 23 Nordeste 31 Nordeste 0 -- -- 94
2020-01-21 03:00:00 -2.1 21 Nordeste 41 Nordeste 0 -- -- 94
2020-01-21 02:00:00 -2.1 29 Nordeste 48 Nordeste 0 -- -- 94
2020-01-21 01:00:00 -2.5 22 Nordeste 37 Nordeste 0 -- -- 92
2020-01-21 00:00:00 -2.2 26 Nordeste 38 Nordeste 0 -- -- 91
2020-01-20 23:00:00 -2.4 15 Nordeste 23 Nordeste 0 -- -- 93
2020-01-20 22:00:00 -2.7 12 Nordeste 33 Nordeste 0 -- -- 92
2020-01-20 21:00:00 -2.2 12 Nordeste 30 Nordeste 0 -- -- 93
2020-01-20 20:00:00 -2.1 18 Nordeste 33 Norte 0 -- -- 92
2020-01-20 19:00:00 -2.4 14 Nordeste 28 Nordeste 0 -- -- 93
2020-01-20 18:00:00 -2.4 18 Nordeste 33 Nordeste 0 -- -- 92
2020-01-20 17:00:00 -2.6 16 Nordeste 30 Nordeste 0 -- -- 93
2020-01-20 16:00:00 -2.6 21 Nordeste 35 Nordeste 0 -- -- 94
2020-01-20 15:00:00 -2.4 26 Nordeste 43 Nordeste 0 -- -- 93
2020-01-20 14:00:00 -2.3 23 Nordeste 48 Nordeste 0 -- -- 90
2020-01-20 13:00:00 -2.2 30 Nordeste 57 Nordeste 0 -- -- 90
2020-01-20 12:00:00 -2.9 29 Nordeste 42 Nordeste 0 -- -- 88
2020-01-20 11:00:00 -3.2 23 Nordeste 36 Nordeste 0 -- -- 83
2020-01-20 10:00:00 -3.1 17 Nordeste 28 Nordeste 0 -- -- 77
2020-01-20 09:00:00 -3.4 16 Nordeste 26 Nordeste 0 -- -- 77
2020-01-20 08:00:00 -3.4 12 Nordeste 33 Nordeste 0 -- -- 77
2020-01-20 07:00:00 -3.1 27 Nordeste 39 Nordeste 0 -- -- 75
2020-01-20 06:00:00 -2.9 22 Nordeste 35 Norte 0 -- -- 75
2020-01-20 05:00:00 -2.8 18 Nordeste 32 Norte 0 -- -- 76
2020-01-20 04:00:00 -2.8 23 Nordeste 35 Nordeste 0 -- -- 74
2020-01-20 03:00:00 -2.9 18 Nordeste 29 Nordeste 0 -- -- 74
2020-01-20 02:00:00 -2.7 17 Norte 35 Norte 0 -- -- 74
2020-01-20 01:00:00 -2.4 15 Nordeste 26 Nordeste 0 -- -- 73
2020-01-20 00:00:00 -2 14 Nordeste 28 Norte 0 -- -- 71
2020-01-19 23:00:00 -1.7 21 Nordeste 35 Nordeste 0 -- -- 71
2020-01-19 22:00:00 -1 24 Nordeste 36 Nordeste 0 -- -- 67
2020-01-19 21:00:00 -1 21 Nordeste 36 Nordeste 0 -- -- 69
2020-01-19 20:00:00 -0.6 26 Nordeste 43 Nordeste 0 -- -- 69
2020-01-19 19:00:00 0.2 23 Nordeste 41 Nordeste 0 -- -- 68
2020-01-19 18:00:00 0.9 24 Nordeste 46 Nordeste 0 -- -- 68
2020-01-19 17:00:00 2.2 31 Nordeste 45 Nordeste 0 -- -- 68
2020-01-19 16:00:00 2.3 26 Norte 41 Nordeste 0 -- -- 76
2020-01-19 15:00:00 1.8 26 Nordeste 43 Nordeste 0 -- -- 78
2020-01-19 14:00:00 1.3 28 Nordeste 42 Norte 0 -- -- 86
2020-01-19 13:00:00 0.7 26 Nordeste 40 Norte 0.2 -- -- 93
2020-01-19 12:00:00 0.9 27 Nordeste 40 Norte 0.6 -- -- 95
2020-01-19 11:00:00 1.4 27 Norte 40 Norte 0.2 -- -- 95
2020-01-19 10:00:00 1.8 19 Norte 28 Norte 0 -- -- 96
2020-01-19 09:00:00 1.8 16 Norte 28 Norte 0 -- -- 96
2020-01-19 08:00:00 1.2 10 Norte 21 Norte 0.2 -- -- 96
2020-01-19 07:00:00 1.6 13 Norte 22 Norte 0.2 -- -- 95
2020-01-19 06:00:00 1.8 7 Norte 12 Norte 0.2 -- -- 95
2020-01-19 05:00:00 1.9 7 Noroeste 12 Noroeste 0 -- -- 92
2020-01-19 04:00:00 1.8 8 Noroeste 15 Noroeste 0 -- -- 92
2020-01-19 03:00:00 1.1 3 Norte 14 Norte 0 -- -- 92
2020-01-19 02:00:00 1.9 12 Norte 20 Noroeste 0 -- -- 92
2020-01-19 01:00:00 2.2 3 Sudoeste 16 Este 0 -- -- 94
2020-01-19 00:00:00 2.3 7 Noroeste 17 Oeste 0.2 -- -- 93
2020-01-18 23:00:00 2.1 5 Noroeste 46 Norte 2.4 -- -- 95
2020-01-18 22:00:00 5.9 10 Sudoeste 27 Sur 0.4 -- -- 95
2020-01-18 21:00:00 6.7 3 Sudeste 20 Noroeste 0.2 -- -- 90
2020-01-18 20:00:00 8.2 10 Oeste 23 Oeste 0 -- -- 76
2020-01-18 19:00:00 8 8 Sudoeste 32 Oeste 0 -- -- 76
2020-01-18 18:00:00 7.8 25 Oeste 43 Oeste 0 -- -- 76
2020-01-18 17:00:00 8.6 23 Oeste 50 Sudoeste 0 -- -- 70
2020-01-18 16:00:00 10 31 Oeste 51 Oeste 0 -- -- 64
2020-01-18 15:00:00 9.7 27 Oeste 43 Oeste 0 -- -- 66
2020-01-18 14:00:00 8.2 20 Oeste 40 Oeste 0 -- -- 69
2020-01-18 13:00:00 8.4 26 Oeste 43 Oeste 0 -- -- 68
2020-01-18 12:00:00 8.3 18 Oeste 33 Oeste 0 -- -- 70
2020-01-18 11:00:00 5.6 7 Noroeste 18 Oeste 0 -- -- 83
2020-01-18 10:00:00 1.5 2 Este 11 Norte 0 -- -- 89
2020-01-18 09:00:00 1.4 8 Sudoeste 14 Sudoeste 0 -- -- 86
2020-01-18 08:00:00 -0.6 4 Oeste 11 Noroeste 0 -- -- 93
2020-01-18 07:00:00 -1.5 5 Sudeste 10 Sudeste 0 -- -- 92
2020-01-18 06:00:00 -1.7 3 Noroeste 10 Noroeste 0 -- -- 91
2020-01-18 05:00:00 -2.1 4 Norte 10 Norte 0 -- -- 91
2020-01-18 04:00:00 -2.3 3 Sudeste 8 Oeste 0 -- -- 90
2020-01-18 03:00:00 -3.3 3 Sudoeste 7 Sudoeste 0 -- -- 90
2020-01-18 02:00:00 -1.5 6 Sudoeste 12 Oeste 0 -- -- 87
2020-01-18 01:00:00 -1.2 8 Sudoeste 10 Sudoeste 0 -- -- 88
2020-01-18 00:00:00 -1.2 2 Oeste 10 Noroeste 0 -- -- 84
2020-01-17 23:00:00 0.1 5 Noroeste 16 Noroeste 0 -- -- 82
2020-01-17 22:00:00 0.2 6 Sur 16 Noroeste 0 -- -- 79
2020-01-17 21:00:00 2.5 8 Oeste 19 Norte 0 -- -- 75
2020-01-17 20:00:00 3.9 11 Norte 22 Noroeste 0 -- -- 70
2020-01-17 19:00:00 5 16 Noroeste 22 Noroeste 0 -- -- 65
2020-01-17 18:00:00 7 13 Noroeste 30 Noroeste 0 -- -- 59
2020-01-17 17:00:00 8.3 21 Noroeste 31 Noroeste 0 -- -- 59
2020-01-17 16:00:00 8 24 Noroeste 41 Noroeste 0 -- -- 58
2020-01-17 15:00:00 8.5 26 Noroeste 39 Noroeste 0 -- -- 63
2020-01-17 14:00:00 7 17 Noroeste 31 Noroeste 0 -- -- 79
2020-01-17 13:00:00 6.7 21 Noroeste 34 Oeste 0 -- -- 79
2020-01-17 12:00:00 7.5 23 Oeste 39 Oeste 0 -- -- 70
2020-01-17 11:00:00 6.7 27 Oeste 41 Oeste 0 -- -- 72
2020-01-17 10:00:00 5.9 14 Oeste 25 Oeste 0 -- -- 74
2020-01-17 09:00:00 4 15 Oeste 23 Oeste 0 -- -- 80
2020-01-17 08:00:00 4.2 3 Sur 13 Oeste 0 -- -- 75
2020-01-17 07:00:00 5.8 6 Oeste 21 Oeste 0 -- -- 72
2020-01-17 06:00:00 5.1 4 Norte 15 Oeste 0 -- -- 71
2020-01-17 05:00:00 4.5 6 Norte 27 Sudoeste 0 -- -- 70
2020-01-17 04:00:00 6.8 14 Sudoeste 27 Sudoeste 0 -- -- 61
2020-01-17 03:00:00 6.6 4 Este 40 Oeste 0 -- -- 61
2020-01-17 02:00:00 7.9 18 Oeste 29 Oeste 0 -- -- 57
2020-01-17 01:00:00 5.6 10 Sudoeste 15 Sudoeste 0 -- -- 68
2020-01-17 00:00:00 4.6 5 Sur 15 Sur 0 -- -- 74
2020-01-16 23:00:00 4.7 8 Sur 13 Sur 0 -- -- 76
2020-01-16 22:00:00 4.2 14 Sur 18 Sur 0 -- -- 79
2020-01-16 21:00:00 3.4 12 Sur 17 Sur 0 -- -- 86
2020-01-16 20:00:00 4.3 7 Sudoeste 15 Sudoeste 0 -- -- 78
2020-01-16 19:00:00 5.4 9 Sudoeste 21 Sudoeste 0 -- -- 73
2020-01-16 18:00:00 9.6 13 Sudoeste 21 Sudoeste 0 -- -- 64
2020-01-16 17:00:00 11.6 14 Sudoeste 28 Oeste 0 -- -- 61
2020-01-16 16:00:00 12.8 18 Sudoeste 32 Sudoeste 0 -- -- 56
2020-01-16 15:00:00 12.7 21 Oeste 32 Oeste 0 -- -- 57
2020-01-16 14:00:00 12.9 25 Oeste 41 Sudoeste 0 -- -- 55
2020-01-16 13:00:00 12.2 19 Oeste 31 Oeste 0 -- -- 59
2020-01-16 12:00:00 9.1 14 Sudoeste 22 Sur 0 -- -- 73
2020-01-16 11:00:00 7.3 4 Este 16 Sudeste 0 -- -- 81
2020-01-16 10:00:00 4.7 10 Sudeste 19 Sudeste 0 -- -- 90
2020-01-16 09:00:00 1.5 17 Sur 21 Sur 0 -- -- 93
2020-01-16 08:00:00 2.3 17 Sur 19 Sur 0 -- -- 93
2020-01-16 07:00:00 1 6 Sur 15 Sur 0 -- -- 96
2020-01-16 06:00:00 0.5 4 Sur 17 Sur 0 -- -- 96
2020-01-16 05:00:00 -0.8 5 Sudeste 9 Sur 0 -- -- 94
2020-01-16 04:00:00 0.6 5 Sudoeste 11 Sur 0 -- -- 96
2020-01-16 03:00:00 -0.3 2 Sur 8 Sur 0 -- -- 94
2020-01-16 02:00:00 0.4 7 Este 12 Sudoeste 0 -- -- 91
2020-01-16 01:00:00 2.4 5 Sur 14 Este 0 -- -- 91
2020-01-16 00:00:00 1.6 4 Este 13 Sudeste 0 -- -- 92
2020-01-15 23:00:00 2.1 10 Sur 12 Sur 0 -- -- 86
2020-01-15 22:00:00 4.7 6 Nordeste 23 Oeste 0 -- -- 89
2020-01-15 21:00:00 5.3 17 Oeste 25 Oeste 0 -- -- 84
2020-01-15 20:00:00 6.8 5 Sudoeste 33 Oeste 0 -- -- 79
2020-01-15 19:00:00 7.1 18 Oeste 34 Oeste 0 -- -- 78
2020-01-15 18:00:00 7.9 25 Oeste 39 Oeste 0 -- -- 72
2020-01-15 17:00:00 9.3 26 Oeste 45 Oeste 0 -- -- 66
2020-01-15 16:00:00 10.5 30 Oeste 49 Oeste 0 -- -- 61
2020-01-15 15:00:00 11.3 23 Oeste 46 Oeste 0 -- -- 58
2020-01-15 14:00:00 9.8 13 Oeste 31 Oeste 0 -- -- 61
2020-01-15 13:00:00 9.2 9 Noroeste 29 Oeste 0 -- -- 61
2020-01-15 12:00:00 6.2 9 Este 14 Este 0 -- -- 76
2020-01-15 11:00:00 3.9 7 Este 13 Este 0 -- -- 83
2020-01-15 10:00:00 1.6 6 Sudeste 15 Este 0 -- -- 87
2020-01-15 09:00:00 0.8 6 Sur 21 Sur 0 -- -- 84
2020-01-15 08:00:00 2 8 Sur 19 Oeste 0 -- -- 82
2020-01-15 07:00:00 3.6 16 Oeste 27 Oeste 0 -- -- 87
2020-01-15 06:00:00 1.9 4 Este 9 Este 0 -- -- 81
2020-01-15 05:00:00 1.8 4 Oeste 15 Sudeste 0 -- -- 87
2020-01-15 04:00:00 0.8 10 Sur 19 Noroeste 0 -- -- 85
2020-01-15 03:00:00 3.5 7 Sudeste 20 Oeste 0 -- -- 79
2020-01-15 02:00:00 3 10 Oeste 24 Oeste 0 -- -- 79
2020-01-15 01:00:00 2.1 7 Sur 25 Sudoeste 0 -- -- 75
2020-01-15 00:00:00 0.9 3 Sudoeste 19 Oeste 0 -- -- 82
2020-01-14 23:00:00 1.5 7 Oeste 21 Oeste 0 -- -- 73
2020-01-14 22:00:00 -2.3 4 Oeste 9 Sur 0 -- -- 76
2020-01-14 21:00:00 -2.6 3 Sudoeste 9 Noroeste 0 -- -- 78
2020-01-14 20:00:00 0.3 5 Noroeste 11 Noroeste 0 -- -- 73
2020-01-14 19:00:00 2.8 6 Norte 14 Noroeste 0 -- -- 72
2020-01-14 18:00:00 5.4 9 Noroeste 15 Norte 0 -- -- 64
2020-01-14 17:00:00 8.3 8 Norte 14 Norte 0 -- -- 56
2020-01-14 16:00:00 9.4 11 Norte 18 Norte 0 -- -- 54
2020-01-14 15:00:00 9.7 12 Nordeste 19 Norte 0 -- -- 53
2020-01-14 14:00:00 9.7 4 Sur 8 Sudeste 0 -- -- 46
2020-01-14 13:00:00 7.3 6 Sudoeste 14 Sur 0 -- -- 51
2020-01-14 12:00:00 4.9 6 Sudeste 10 Sudeste 0 -- -- 66
2020-01-14 11:00:00 0.8 0 Calma 7 Este 0 -- -- 81
2020-01-14 10:00:00 -2.6 0 Calma 9 Oeste 0 -- -- 87
2020-01-14 09:00:00 -4.8 6 Oeste 10 Oeste 0 -- -- 87
2020-01-14 08:00:00 -5.7 5 Oeste 13 Sudoeste 0 -- -- 89
2020-01-14 07:00:00 -7.1 2 Sudoeste 6 Sudoeste 0 -- -- 88
2020-01-14 06:00:00 -6 3 Sur 6 Sudoeste 0 -- -- 88
2020-01-14 05:00:00 -5.8 5 Sudoeste 8 Sur 0 -- -- 88
2020-01-14 04:00:00 -5.1 4 Norte 6 Sur 0 -- -- 83
2020-01-14 03:00:00 -4.9 6 Sudeste 9 Sudeste 0 -- -- 83
2020-01-14 02:00:00 -4.4 3 Este 9 Noroeste 0 -- -- 79
2020-01-14 01:00:00 -2.8 5 Noroeste 9 Sudeste 0 -- -- 72
2020-01-14 00:00:00 -0.4 3 Noroeste 12 Oeste 0 -- -- 59
2020-01-13 23:00:00 -3 4 Noroeste 8 Sudeste 0 -- -- 66
2020-01-13 22:00:00 -2.3 4 Sudeste 10 Sudeste 0 -- -- 61
2020-01-13 21:00:00 0.4 0 Calma 9 Noroeste 0 -- -- 51
2020-01-13 20:00:00 2.7 3 Nordeste 21 Oeste 0 -- -- 45
2020-01-13 19:00:00 5.8 16 Oeste 28 Oeste 0 -- -- 36
2020-01-13 18:00:00 6.9 5 Norte 18 Norte 0 -- -- 30
2020-01-13 17:00:00 9.9 6 Sur 14 Noroeste 0 -- -- 29
2020-01-13 16:00:00 10.3 9 Noroeste 27 Noroeste 0 -- -- 30
2020-01-13 15:00:00 10.9 19 Noroeste 27 Noroeste 0 -- -- 28
2020-01-13 14:00:00 8.1 5 Nordeste 9 Norte 0 -- -- 40
2020-01-13 13:00:00 5.3 4 Sudeste 6 Nordeste 0 -- -- 48
2020-01-13 12:00:00 2.2 2 Noroeste 5 Noroeste 0 -- -- 59
2020-01-13 11:00:00 -1.1 0 Calma 3 Noroeste 0 -- -- 75
2020-01-13 10:00:00 -4.3 0 Calma 3 Noroeste 0 -- -- 83
2020-01-13 09:00:00 -7.9 2 Nordeste 3 Norte 0 -- -- 86
2020-01-13 08:00:00 -7.6 3 Noroeste 6 Noroeste 0 -- -- 85
2020-01-13 07:00:00 -8.3 4 Sur 7 Sur 0 -- -- 86
2020-01-13 06:00:00 -7.7 2 Oeste 6 Oeste 0 -- -- 84
2020-01-13 05:00:00 -8 4 Sudoeste 7 Sudoeste 0 -- -- 86
2020-01-13 04:00:00 -8.1 4 Sudoeste 6 Sur 0 -- -- 85
2020-01-13 03:00:00 -7.1 4 Sudoeste 6 Sudoeste 0 -- -- 83
2020-01-13 02:00:00 -7 2 Sudeste 6 Sudoeste 0 -- -- 84
2020-01-13 01:00:00 -6.1 4 Oeste 6 Noroeste 0 -- -- 82
2020-01-13 00:00:00 -5.7 3 Oeste 6 Sudoeste 0 -- -- 80
2020-01-12 23:00:00 -5 0 Calma 6 Oeste 0 -- -- 78
2020-01-12 22:00:00 -4 4 Oeste 11 Sudoeste 0 -- -- 75
2020-01-12 21:00:00 -2.4 5 Oeste 13 Oeste 0 -- -- 67
2020-01-12 20:00:00 -0.7 11 Oeste 15 Sudoeste 0 -- -- 62
2020-01-12 19:00:00 0.1 3 Sudoeste 8 Sudoeste 0 -- -- 58
2020-01-12 18:00:00 5.3 6 Oeste 7 Oeste 0 -- -- 45
2020-01-12 17:00:00 8.5 5 Sudeste 12 Este 0 -- -- 39
2020-01-12 16:00:00 9.2 8 Nordeste 14 Nordeste 0 -- -- 31
2020-01-12 15:00:00 8.9 5 Este 13 Noroeste 0 -- -- 39
2020-01-12 14:00:00 7.9 7 Noroeste 11 Noroeste 0 -- -- 40
2020-01-12 13:00:00 5.6 2 Nordeste 7 Norte 0 -- -- 48
2020-01-12 12:00:00 1.8 4 Este 6 Este 0 -- -- 64
2020-01-12 11:00:00 -2 3 Este 5 Nordeste 0 -- -- 81
2020-01-12 10:00:00 -5.2 2 Nordeste -- -- 0 -- -- 89
2020-01-12 09:00:00 -8.1 3 Sudoeste 8 Sudoeste 0 -- -- 89
2020-01-12 08:00:00 -8.8 3 Sudoeste -- -- 0 -- -- 88
2020-01-12 07:00:00 -8.3 0 Calma 7 Sudoeste 0 -- -- 88
2020-01-12 06:00:00 -8 4 Oeste 6 Oeste 0 -- -- 87
2020-01-12 05:00:00 -7.4 2 Oeste 9 Sudoeste 0 -- -- 86
2020-01-12 04:00:00 -6.8 6 Oeste 8 Oeste 0 -- -- 86
2020-01-12 03:00:00 -6.5 0 Calma 6 Sudoeste 0 -- -- 85
2020-01-12 02:00:00 -5.7 3 Sudoeste 5 Oeste 0 -- -- 83
2020-01-12 01:00:00 -5.5 3 Oeste 4 Noroeste 0 -- -- 82
2020-01-12 00:00:00 -4.9 2 Nordeste 6 Oeste 0 -- -- 82
2020-01-11 23:00:00 -4.4 4 Oeste 8 Oeste 0 -- -- 79
2020-01-11 22:00:00 -3.1 6 Oeste 8 Sudoeste 0 -- -- 77
2020-01-11 21:00:00 -1.8 5 Oeste 12 Oeste 0 -- -- 73
2020-01-11 20:00:00 -1.1 9 Oeste 14 Oeste 0 -- -- 72
2020-01-11 19:00:00 0.5 4 Sudoeste 9 Norte 0 -- -- 66
2020-01-11 18:00:00 5.9 7 Norte 13 Norte 0 -- -- 53
2020-01-11 17:00:00 8.2 3 Este 10 Este 0 -- -- 48
2020-01-11 16:00:00 8.2 8 Este 13 Este 0 -- -- 49
2020-01-11 15:00:00 8.1 5 Nordeste 11 Norte 0 -- -- 49
2020-01-11 14:00:00 6.8 4 Noroeste 9 Noroeste 0 -- -- 61
2020-01-11 13:00:00 4.8 4 Nordeste 8 Este 0 -- -- 72
2020-01-11 12:00:00 2.3 3 Nordeste 8 Nordeste 0 -- -- 80
2020-01-11 11:00:00 -0.2 2 Norte 4 Oeste 0 -- -- 91
2020-01-11 10:00:00 -3.4 3 Noroeste 5 Oeste 0 -- -- 95
2020-01-11 09:00:00 -6.2 2 Noroeste 4 Noroeste 0 -- -- 94
2020-01-11 08:00:00 -5.6 0 Calma 6 Nordeste 0 -- -- 94
2020-01-11 07:00:00 -5.3 0 Calma 8 Noroeste 0 -- -- 93
2020-01-11 06:00:00 -5.1 3 Sudoeste 4 Sudoeste 0 -- -- 93
2020-01-11 05:00:00 -4 2 Oeste 5 Oeste 0 -- -- 92
2020-01-11 04:00:00 -2.7 3 Noroeste 11 Oeste 0 -- -- 91
2020-01-11 03:00:00 -2.1 5 Oeste 13 Oeste 0 -- -- 90
2020-01-11 02:00:00 -1.1 11 Oeste 16 Oeste 0 -- -- 90
2020-01-11 01:00:00 0.3 7 Oeste 14 Oeste 0 -- -- 86
2020-01-11 00:00:00 2 8 Noroeste 20 Norte 0 -- -- 81
2020-01-10 23:00:00 2.8 7 Norte 22 Noroeste 0 -- -- 79
2020-01-10 22:00:00 2.6 7 Noroeste 14 Noroeste 0 -- -- 80
2020-01-10 21:00:00 2.7 8 Norte 21 Norte 0 -- -- 79
2020-01-10 20:00:00 3.3 14 Norte 41 Nordeste 0 -- -- 76
2020-01-10 19:00:00 3.9 16 Norte 36 Nordeste 0 -- -- 75
2020-01-10 18:00:00 4.5 21 Nordeste 42 Norte 0 -- -- 74
2020-01-10 17:00:00 5.3 26 Nordeste 51 Nordeste 0 -- -- 67
2020-01-10 16:00:00 6.3 31 Nordeste 57 Nordeste 0 -- -- 63
2020-01-10 15:00:00 5.9 27 Nordeste 49 Nordeste 0 -- -- 65
2020-01-10 14:00:00 6.3 31 Norte 46 Nordeste 0 -- -- 64
2020-01-10 13:00:00 4.9 24 Norte 39 Norte 0 -- -- 72
2020-01-10 12:00:00 4.4 20 Nordeste 34 Nordeste 0 -- -- 72
2020-01-10 11:00:00 3 9 Noroeste 19 Norte 0 -- -- 84
2020-01-10 10:00:00 2.2 12 Noroeste 19 Noroeste 0 -- -- 86
2020-01-10 09:00:00 1 4 Norte 10 Noroeste 0 -- -- 93
2020-01-10 08:00:00 1.1 5 Noroeste 13 Noroeste 0 -- -- 92
2020-01-10 07:00:00 2.6 5 Norte 22 Nordeste 0 -- -- 89
2020-01-10 06:00:00 3.5 8 Norte 25 Nordeste 0 -- -- 88
2020-01-10 05:00:00 3.5 18 Nordeste 28 Nordeste 0 -- -- 92
2020-01-10 04:00:00 3.9 6 Nordeste 20 Noroeste 0 -- -- 90
2020-01-10 03:00:00 4.2 7 Noroeste 21 Noroeste 0 -- -- 88
2020-01-10 02:00:00 1.5 5 Oeste 9 Oeste 0 -- -- 91
2020-01-10 01:00:00 1.6 6 Sur 8 Sur 0 -- -- 87
2020-01-10 00:00:00 2.2 5 Nordeste 11 Este 0 -- -- 85
2020-01-09 23:00:00 4.5 8 Noroeste 19 Oeste 0 -- -- 76
2020-01-09 22:00:00 4.6 4 Oeste 10 Norte 0 -- -- 79
2020-01-09 21:00:00 4.9 5 Norte 14 Norte 0 -- -- 80
2020-01-09 20:00:00 4.7 6 Norte 14 Sur 0 -- -- 77
2020-01-09 19:00:00 6.3 7 Sudoeste 9 Sudoeste 0 -- -- 72
2020-01-09 18:00:00 9.8 4 Noroeste 14 Noroeste 0 -- -- 63
2020-01-09 17:00:00 12.7 5 Oeste 14 Sudoeste 0 -- -- 52
2020-01-09 16:00:00 13.6 7 Sudoeste 14 Sur 0 -- -- 49
2020-01-09 15:00:00 13.8 7 Sur 16 Oeste 0 -- -- 50
2020-01-09 14:00:00 11.4 5 Sudoeste 11 Sudoeste 0 -- -- 61
2020-01-09 13:00:00 8 2 Norte 6 Sudeste 0 -- -- 76
2020-01-09 12:00:00 4.2 3 Norte 6 Norte 0 -- -- 89
2020-01-09 11:00:00 0.9 3 Sur 5 Sudeste 0 -- -- 98
2020-01-09 10:00:00 -2.4 0 Calma 6 Noroeste 0 -- -- 98
2020-01-09 09:00:00 -3.9 3 Noroeste 5 Norte 0 -- -- 97
2020-01-09 08:00:00 -4.3 0 Calma 5 Sur 0 -- -- 97
2020-01-09 07:00:00 -3.6 2 Norte 7 Norte 0 -- -- 97
2020-01-09 06:00:00 -2.8 3 Oeste 5 Oeste 0 -- -- 96
2020-01-09 05:00:00 -2.7 0 Calma 7 Sudeste 0 -- -- 95
2020-01-09 04:00:00 -1.6 3 Sudoeste 12 Oeste 0 -- -- 94
2020-01-09 03:00:00 -1.3 5 Oeste 6 Oeste 0 -- -- 93
2020-01-09 02:00:00 1.1 5 Norte 8 Norte 0 -- -- 95
2020-01-09 01:00:00 -0.9 2 Noroeste 7 Oeste 0 -- -- 91
2020-01-09 00:00:00 0.8 5 Oeste 7 Noroeste 0 -- -- 93
2020-01-08 23:00:00 2.4 2 Sudeste 10 Sudoeste 0 -- -- 92
2020-01-08 22:00:00 2.3 4 Sur 21 Sudeste 0 -- -- 89
2020-01-08 21:00:00 2 12 Sudeste 17 Sudeste 0 -- -- 88
2020-01-08 20:00:00 3.1 5 Sudoeste 8 Sudoeste 0 -- -- 79
2020-01-08 19:00:00 4.3 6 Sudeste 12 Sur 0 -- -- 77
2020-01-08 18:00:00 7.5 8 Sudeste 10 Sudeste 0 -- -- 68
2020-01-08 17:00:00 11.1 8 Sudeste 15 Sudeste 0 -- -- 62
2020-01-08 16:00:00 12.4 3 Sudeste 8 Sudeste 0 -- -- 55
2020-01-08 15:00:00 11.4 4 Nordeste 12 Nordeste 0 -- -- 60
2020-01-08 14:00:00 10.7 4 Norte 10 Nordeste 0 -- -- 58
2020-01-08 13:00:00 9.6 5 Sudeste 8 Este 0 -- -- 44
2020-01-08 12:00:00 6.4 2 Este 5 Sudeste 0 -- -- 59
2020-01-08 11:00:00 2.5 3 Este 6 Este 0 -- -- 73
2020-01-08 10:00:00 -0.1 0 Calma 8 Sudeste 0 -- -- 77
2020-01-08 09:00:00 -2.3 4 Sudoeste 11 Sudoeste 0 -- -- 84
2020-01-08 08:00:00 -3 4 Sudoeste 8 Sur 0 -- -- 83
2020-01-08 07:00:00 -3 2 Este 5 Este 0 -- -- 86
2020-01-08 06:00:00 -2.6 3 Nordeste 4 Oeste 0 -- -- 82
2020-01-08 05:00:00 -2.9 2 Sur 5 Sur 0 -- -- 82
2020-01-08 04:00:00 -2.4 4 Sur 7 Sudeste 0 -- -- 81
2020-01-08 03:00:00 -2.7 4 Este 6 Sudeste 0 -- -- 80
2020-01-08 02:00:00 -2.2 2 Sudeste 8 Noroeste 0 -- -- 78
2020-01-08 01:00:00 -1.8 3 Norte 6 Oeste 0 -- -- 78
2020-01-08 00:00:00 -1 3 Nordeste 8 Oeste 0 -- -- 74
2020-01-07 23:00:00 -0.6 4 Oeste 9 Oeste 0 -- -- 72
2020-01-07 22:00:00 -0.6 4 Oeste 6 Oeste 0 -- -- 71
2020-01-07 21:00:00 0.9 4 Noroeste 13 Sudoeste 0 -- -- 66
2020-01-07 20:00:00 2 9 Oeste 12 Sudoeste 0 -- -- 63
2020-01-07 19:00:00 3.7 5 Oeste 8 Oeste 0 -- -- 56
2020-01-07 18:00:00 9 5 Noroeste 13 Norte 0 -- -- 44
2020-01-07 17:00:00 12.1 6 Norte 13 Norte 0 -- -- 41
2020-01-07 16:00:00 13.5 8 Norte 16 Norte 0 -- -- 29
2020-01-07 15:00:00 13.5 8 Norte 13 Noroeste 0 -- -- 30
2020-01-07 14:00:00 11.1 2 Norte 7 Este 0 -- -- 47
2020-01-07 13:00:00 8.4 4 Este 8 Este 0 -- -- 54
2020-01-07 12:00:00 4.8 2 Este 8 Nordeste 0 -- -- 67
2020-01-07 11:00:00 1.2 4 Oeste 6 Oeste 0 -- -- 79
2020-01-07 10:00:00 -2 0 Calma 3 Sudoeste 0 -- -- 88
2020-01-07 09:00:00 -5.3 3 Noroeste 8 Oeste 0 -- -- 89
2020-01-07 08:00:00 -5.1 0 Calma 5 Sur 0 -- -- 89
2020-01-07 07:00:00 -5 3 Sudoeste 6 Sudoeste 0 -- -- 86
2020-01-07 06:00:00 -4.5 4 Oeste 5 Oeste 0 -- -- 89
2020-01-07 05:00:00 -4.3 3 Sur 5 Norte 0 -- -- 89
2020-01-07 04:00:00 -3.5 3 Norte 8 Oeste 0 -- -- 87
2020-01-07 03:00:00 -3.5 2 Oeste 5 Oeste 0 -- -- 86
2020-01-07 02:00:00 -2.2 3 Sudoeste 8 Sudoeste 0 -- -- 85
2020-01-07 01:00:00 -1.6 4 Noroeste 9 Oeste 0 -- -- 81
2020-01-07 00:00:00 0.2 6 Oeste 12 Oeste 0 -- -- 78
2020-01-06 23:00:00 0.2 7 Sudoeste 12 Oeste 0 -- -- 78
2020-01-06 22:00:00 -0.2 9 Oeste 12 Sudoeste 0 -- -- 81
2020-01-06 21:00:00 -0.5 2 Sudoeste 6 Noroeste 0 -- -- 79
2020-01-06 20:00:00 1.9 0 Calma 5 Este 0 -- -- 71
2020-01-06 19:00:00 6.6 6 Noroeste 12 Noroeste 0 -- -- 56
2020-01-06 18:00:00 9.5 6 Noroeste 9 Norte 0 -- -- 48
2020-01-06 17:00:00 12.8 3 Norte 15 Norte 0 -- -- 41
2020-01-06 16:00:00 13.7 10 Norte 19 Norte 0 -- -- 35
2020-01-06 15:00:00 14.6 8 Norte 18 Noroeste 0 -- -- 41
2020-01-06 14:00:00 13.9 11 Oeste 17 Oeste 0 -- -- 36
2020-01-06 13:00:00 9.5 4 Sur 6 Sudoeste 0 -- -- 49
2020-01-06 12:00:00 5.5 2 Sudeste 4 Sudeste 0 -- -- 69
2020-01-06 11:00:00 0.7 2 Este 4 Este 0 -- -- 89
2020-01-06 10:00:00 -2.2 0 Calma 4 Sudoeste 0 -- -- 93